sensor_id;sensor_type;location;lat;lon;timestamp;P1;durP1;ratioP1;P2;durP2;ratioP2
485;SDS011;229;48.734;9.340;2023-09-19T00:00:33;3.10;;;1.40;;
485;SDS011;229;48.734;9.340;2023-09-19T00:03:01;3.53;;;1.97;;
485;SDS011;229;48.734;9.340;2023-09-19T00:05:33;9.33;;;1.50;;
485;SDS011;229;48.734;9.340;2023-09-19T00:08:01;1.80;;;1.17;;
485;SDS011;229;48.734;9.340;2023-09-19T00:10:29;3.50;;;1.20;;
485;SDS011;229;48.734;9.340;2023-09-19T00:12:57;2.73;;;1.60;;
485;SDS011;229;48.734;9.340;2023-09-19T00:15:25;1.77;;;1.07;;
485;SDS011;229;48.734;9.340;2023-09-19T00:17:53;1.77;;;1.20;;
485;SDS011;229;48.734;9.340;2023-09-19T00:20:21;2.67;;;1.50;;
485;SDS011;229;48.734;9.340;2023-09-19T00:22:50;1.60;;;1.07;;
485;SDS011;229;48.734;9.340;2023-09-19T00:25:18;3.50;;;1.43;;
485;SDS011;229;48.734;9.340;2023-09-19T00:27:46;1.77;;;1.00;;
485;SDS011;229;48.734;9.340;2023-09-19T00:30:16;2.70;;;1.20;;
485;SDS011;229;48.734;9.340;2023-09-19T00:32:46;3.13;;;1.30;;
485;SDS011;229;48.734;9.340;2023-09-19T00:35:14;3.93;;;1.40;;
485;SDS011;229;48.734;9.340;2023-09-19T00:37:41;3.63;;;1.20;;
485;SDS011;229;48.734;9.340;2023-09-19T00:40:10;6.83;;;1.53;;
485;SDS011;229;48.734;9.340;2023-09-19T00:42:40;7.83;;;1.40;;
485;SDS011;229;48.734;9.340;2023-09-19T00:45:08;1.63;;;1.40;;
485;SDS011;229;48.734;9.340;2023-09-19T00:47:36;4.07;;;1.43;;
485;SDS011;229;48.734;9.340;2023-09-19T00:50:04;2.73;;;1.00;;
485;SDS011;229;48.734;9.340;2023-09-19T00:52:33;3.40;;;0.97;;
485;SDS011;229;48.734;9.340;2023-09-19T00:55:02;1.73;;;1.20;;
485;SDS011;229;48.734;9.340;2023-09-19T00:57:31;4.00;;;1.40;;
485;SDS011;229;48.734;9.340;2023-09-19T00:59:58;1.80;;;1.10;;
485;SDS011;229;48.734;9.340;2023-09-19T01:02:30;7.30;;;1.53;;
485;SDS011;229;48.734;9.340;2023-09-19T01:04:57;1.70;;;1.30;;
485;SDS011;229;48.734;9.340;2023-09-19T01:07:25;2.37;;;1.20;;
485;SDS011;229;48.734;9.340;2023-09-19T01:09:55;3.67;;;1.20;;
485;SDS011;229;48.734;9.340;2023-09-19T01:12:25;4.17;;;1.40;;
485;SDS011;229;48.734;9.340;2023-09-19T01:14:59;2.73;;;1.23;;
485;SDS011;229;48.734;9.340;2023-09-19T01:17:30;1.43;;;1.00;;
485;SDS011;229;48.734;9.340;2023-09-19T01:20:03;1.50;;;1.00;;
485;SDS011;229;48.734;9.340;2023-09-19T01:22:37;3.30;;;1.37;;
485;SDS011;229;48.734;9.340;2023-09-19T01:25:18;2.13;;;1.20;;
485;SDS011;229;48.734;9.340;2023-09-19T01:27:59;1.77;;;1.20;;
485;SDS011;229;48.734;9.340;2023-09-19T01:30:35;3.30;;;1.30;;
485;SDS011;229;48.734;9.340;2023-09-19T01:33:03;3.70;;;1.13;;
485;SDS011;229;48.734;9.340;2023-09-19T01:35:31;3.03;;;1.40;;
485;SDS011;229;48.734;9.340;2023-09-19T01:37:59;1.93;;;1.20;;
485;SDS011;229;48.734;9.340;2023-09-19T01:40:27;1.80;;;1.23;;
485;SDS011;229;48.734;9.340;2023-09-19T01:42:56;2.10;;;0.90;;
485;SDS011;229;48.734;9.340;2023-09-19T01:45:27;2.70;;;1.20;;
485;SDS011;229;48.734;9.340;2023-09-19T01:47:59;3.60;;;1.27;;
485;SDS011;229;48.734;9.340;2023-09-19T01:50:32;5.17;;;1.57;;
485;SDS011;229;48.734;9.340;2023-09-19T01:53:02;2.70;;;1.17;;
485;SDS011;229;48.734;9.340;2023-09-19T01:55:35;2.70;;;1.57;;
485;SDS011;229;48.734;9.340;2023-09-19T01:58:04;2.20;;;1.20;;
485;SDS011;229;48.734;9.340;2023-09-19T02:00:34;1.70;;;1.00;;
485;SDS011;229;48.734;9.340;2023-09-19T02:03:04;3.17;;;0.93;;
485;SDS011;229;48.734;9.340;2023-09-19T02:05:32;1.77;;;1.27;;
485;SDS011;229;48.734;9.340;2023-09-19T02:07:59;2.80;;;1.00;;
485;SDS011;229;48.734;9.340;2023-09-19T02:10:26;2.10;;;1.10;;
485;SDS011;229;48.734;9.340;2023-09-19T02:12:53;2.33;;;1.40;;
485;SDS011;229;48.734;9.340;2023-09-19T02:15:21;1.70;;;1.10;;
485;SDS011;229;48.734;9.340;2023-09-19T02:17:48;2.07;;;1.00;;
485;SDS011;229;48.734;9.340;2023-09-19T02:20:17;4.07;;;1.20;;
485;SDS011;229;48.734;9.340;2023-09-19T02:22:45;4.43;;;1.20;;
485;SDS011;229;48.734;9.340;2023-09-19T02:25:15;2.33;;;1.30;;
485;SDS011;229;48.734;9.340;2023-09-19T02:27:42;2.40;;;1.47;;
485;SDS011;229;48.734;9.340;2023-09-19T02:30:10;1.40;;;0.90;;
485;SDS011;229;48.734;9.340;2023-09-19T02:32:37;2.50;;;1.30;;
485;SDS011;229;48.734;9.340;2023-09-19T02:35:05;2.67;;;1.13;;
485;SDS011;229;48.734;9.340;2023-09-19T02:37:34;4.97;;;1.47;;
485;SDS011;229;48.734;9.340;2023-09-19T02:40:02;2.40;;;1.40;;
485;SDS011;229;48.734;9.340;2023-09-19T02:42:43;2.60;;;1.13;;
485;SDS011;229;48.734;9.340;2023-09-19T02:45:15;1.93;;;1.10;;
485;SDS011;229;48.734;9.340;2023-09-19T02:47:43;1.80;;;1.10;;
485;SDS011;229;48.734;9.340;2023-09-19T02:50:11;1.50;;;1.13;;
485;SDS011;229;48.734;9.340;2023-09-19T02:52:40;3.73;;;1.50;;
485;SDS011;229;48.734;9.340;2023-09-19T02:55:08;1.43;;;1.07;;
485;SDS011;229;48.734;9.340;2023-09-19T02:57:35;2.60;;;1.30;;
485;SDS011;229;48.734;9.340;2023-09-19T03:00:06;5.87;;;1.47;;
485;SDS011;229;48.734;9.340;2023-09-19T03:02:35;2.97;;;1.33;;
485;SDS011;229;48.734;9.340;2023-09-19T03:05:03;2.40;;;1.20;;
485;SDS011;229;48.734;9.340;2023-09-19T03:07:31;2.30;;;1.70;;
485;SDS011;229;48.734;9.340;2023-09-19T03:10:00;3.87;;;1.70;;
485;SDS011;229;48.734;9.340;2023-09-19T03:12:27;4.07;;;1.77;;
485;SDS011;229;48.734;9.340;2023-09-19T03:14:54;3.23;;;1.50;;
485;SDS011;229;48.734;9.340;2023-09-19T03:17:22;7.37;;;1.37;;
485;SDS011;229;48.734;9.340;2023-09-19T03:19:49;4.00;;;1.60;;
485;SDS011;229;48.734;9.340;2023-09-19T03:22:16;2.17;;;1.10;;
485;SDS011;229;48.734;9.340;2023-09-19T03:24:44;2.43;;;1.30;;
485;SDS011;229;48.734;9.340;2023-09-19T03:27:13;1.90;;;1.27;;
485;SDS011;229;48.734;9.340;2023-09-19T03:29:40;2.03;;;1.23;;
485;SDS011;229;48.734;9.340;2023-09-19T03:32:08;4.10;;;1.60;;
485;SDS011;229;48.734;9.340;2023-09-19T03:34:36;2.17;;;1.30;;
485;SDS011;229;48.734;9.340;2023-09-19T03:37:07;2.67;;;1.23;;
485;SDS011;229;48.734;9.340;2023-09-19T03:39:35;3.33;;;1.50;;
485;SDS011;229;48.734;9.340;2023-09-19T03:42:02;2.10;;;1.23;;
485;SDS011;229;48.734;9.340;2023-09-19T03:44:31;2.20;;;1.60;;
485;SDS011;229;48.734;9.340;2023-09-19T03:46:58;3.70;;;1.50;;
485;SDS011;229;48.734;9.340;2023-09-19T03:49:26;4.20;;;1.50;;
485;SDS011;229;48.734;9.340;2023-09-19T03:51:53;3.00;;;1.50;;
485;SDS011;229;48.734;9.340;2023-09-19T03:54:20;3.47;;;1.60;;
485;SDS011;229;48.734;9.340;2023-09-19T03:56:47;3.80;;;2.00;;
485;SDS011;229;48.734;9.340;2023-09-19T03:59:15;2.03;;;1.47;;
485;SDS011;229;48.734;9.340;2023-09-19T04:01:44;1.77;;;1.20;;
485;SDS011;229;48.734;9.340;2023-09-19T04:04:11;2.40;;;1.33;;
485;SDS011;229;48.734;9.340;2023-09-19T04:06:39;3.83;;;1.53;;
485;SDS011;229;48.734;9.340;2023-09-19T04:09:06;2.77;;;1.50;;
485;SDS011;229;48.734;9.340;2023-09-19T04:11:34;3.67;;;1.40;;
485;SDS011;229;48.734;9.340;2023-09-19T04:14:02;3.40;;;1.10;;
485;SDS011;229;48.734;9.340;2023-09-19T04:16:30;5.30;;;1.80;;
485;SDS011;229;48.734;9.340;2023-09-19T04:18:59;2.50;;;1.40;;
485;SDS011;229;48.734;9.340;2023-09-19T04:21:26;4.73;;;1.20;;
485;SDS011;229;48.734;9.340;2023-09-19T04:23:54;3.60;;;1.50;;
485;SDS011;229;48.734;9.340;2023-09-19T04:26:21;7.20;;;1.47;;
485;SDS011;229;48.734;9.340;2023-09-19T04:28:48;3.43;;;1.40;;
485;SDS011;229;48.734;9.340;2023-09-19T04:31:16;4.83;;;1.33;;
485;SDS011;229;48.734;9.340;2023-09-19T04:33:44;6.10;;;1.40;;
485;SDS011;229;48.734;9.340;2023-09-19T04:36:13;3.63;;;1.40;;
485;SDS011;229;48.734;9.340;2023-09-19T04:38:40;2.57;;;1.60;;
485;SDS011;229;48.734;9.340;2023-09-19T04:41:07;2.80;;;1.30;;
485;SDS011;229;48.734;9.340;2023-09-19T04:43:35;4.67;;;1.50;;
485;SDS011;229;48.734;9.340;2023-09-19T04:46:02;4.53;;;1.30;;
485;SDS011;229;48.734;9.340;2023-09-19T04:48:31;8.43;;;1.73;;
485;SDS011;229;48.734;9.340;2023-09-19T04:50:59;4.90;;;1.50;;
485;SDS011;229;48.734;9.340;2023-09-19T04:53:28;3.83;;;1.67;;
485;SDS011;229;48.734;9.340;2023-09-19T04:55:55;2.23;;;1.50;;
485;SDS011;229;48.734;9.340;2023-09-19T04:58:23;4.60;;;1.70;;
485;SDS011;229;48.734;9.340;2023-09-19T05:00:50;5.87;;;2.50;;
485;SDS011;229;48.734;9.340;2023-09-19T05:03:17;4.10;;;1.87;;
485;SDS011;229;48.734;9.340;2023-09-19T05:05:45;1.97;;;1.43;;
485;SDS011;229;48.734;9.340;2023-09-19T05:08:14;3.40;;;1.50;;
485;SDS011;229;48.734;9.340;2023-09-19T05:10:43;5.33;;;1.63;;
485;SDS011;229;48.734;9.340;2023-09-19T05:13:10;4.60;;;1.53;;
485;SDS011;229;48.734;9.340;2023-09-19T05:15:38;2.10;;;1.33;;
485;SDS011;229;48.734;9.340;2023-09-19T05:18:05;2.07;;;1.43;;
485;SDS011;229;48.734;9.340;2023-09-19T05:20:33;2.40;;;1.63;;
485;SDS011;229;48.734;9.340;2023-09-19T05:23:03;2.20;;;1.90;;
485;SDS011;229;48.734;9.340;2023-09-19T05:25:37;3.00;;;1.67;;
485;SDS011;229;48.734;9.340;2023-09-19T05:28:06;3.20;;;1.63;;
485;SDS011;229;48.734;9.340;2023-09-19T05:30:34;3.20;;;1.73;;
485;SDS011;229;48.734;9.340;2023-09-19T05:33:03;3.10;;;1.80;;
485;SDS011;229;48.734;9.340;2023-09-19T05:35:30;2.90;;;1.93;;
485;SDS011;229;48.734;9.340;2023-09-19T05:37:58;2.00;;;1.60;;
485;SDS011;229;48.734;9.340;2023-09-19T05:40:25;6.03;;;2.40;;
485;SDS011;229;48.734;9.340;2023-09-19T05:42:53;3.20;;;1.70;;
485;SDS011;229;48.734;9.340;2023-09-19T05:45:21;2.80;;;1.90;;
485;SDS011;229;48.734;9.340;2023-09-19T05:47:49;4.60;;;2.40;;
485;SDS011;229;48.734;9.340;2023-09-19T05:50:16;5.00;;;2.23;;
485;SDS011;229;48.734;9.340;2023-09-19T05:52:51;7.60;;;2.40;;
485;SDS011;229;48.734;9.340;2023-09-19T05:55:18;6.90;;;1.87;;
485;SDS011;229;48.734;9.340;2023-09-19T05:57:49;3.60;;;2.10;;
485;SDS011;229;48.734;9.340;2023-09-19T06:00:16;5.53;;;2.10;;
485;SDS011;229;48.734;9.340;2023-09-19T06:02:50;2.50;;;1.80;;
485;SDS011;229;48.734;9.340;2023-09-19T06:05:17;3.70;;;1.87;;
485;SDS011;229;48.734;9.340;2023-09-19T06:07:45;4.37;;;2.30;;
485;SDS011;229;48.734;9.340;2023-09-19T06:10:12;4.43;;;2.40;;
485;SDS011;229;48.734;9.340;2023-09-19T06:12:39;5.73;;;1.83;;
485;SDS011;229;48.734;9.340;2023-09-19T06:15:10;3.40;;;1.80;;
485;SDS011;229;48.734;9.340;2023-09-19T06:17:40;2.90;;;1.93;;
485;SDS011;229;48.734;9.340;2023-09-19T06:20:09;3.67;;;1.83;;
485;SDS011;229;48.734;9.340;2023-09-19T06:22:39;5.37;;;2.10;;
485;SDS011;229;48.734;9.340;2023-09-19T06:25:08;7.50;;;2.30;;
485;SDS011;229;48.734;9.340;2023-09-19T06:27:37;3.53;;;1.70;;
485;SDS011;229;48.734;9.340;2023-09-19T06:30:07;2.40;;;1.63;;
485;SDS011;229;48.734;9.340;2023-09-19T06:32:36;5.60;;;2.53;;
485;SDS011;229;48.734;9.340;2023-09-19T06:35:03;6.03;;;2.00;;
485;SDS011;229;48.734;9.340;2023-09-19T06:37:34;4.23;;;2.10;;
485;SDS011;229;48.734;9.340;2023-09-19T06:40:03;2.77;;;1.80;;
485;SDS011;229;48.734;9.340;2023-09-19T06:42:31;5.70;;;2.77;;
485;SDS011;229;48.734;9.340;2023-09-19T06:44:58;3.63;;;2.10;;
485;SDS011;229;48.734;9.340;2023-09-19T06:47:25;6.30;;;2.07;;
485;SDS011;229;48.734;9.340;2023-09-19T06:49:52;6.10;;;2.20;;
485;SDS011;229;48.734;9.340;2023-09-19T06:52:20;8.27;;;2.33;;
485;SDS011;229;48.734;9.340;2023-09-19T06:54:48;4.37;;;2.07;;
485;SDS011;229;48.734;9.340;2023-09-19T06:57:17;3.57;;;2.20;;
485;SDS011;229;48.734;9.340;2023-09-19T06:59:45;3.47;;;1.70;;
485;SDS011;229;48.734;9.340;2023-09-19T07:02:12;11.40;;;3.23;;
485;SDS011;229;48.734;9.340;2023-09-19T07:04:39;3.30;;;2.27;;
485;SDS011;229;48.734;9.340;2023-09-19T07:07:07;5.67;;;2.10;;
485;SDS011;229;48.734;9.340;2023-09-19T07:09:35;4.43;;;2.10;;
485;SDS011;229;48.734;9.340;2023-09-19T07:12:06;3.60;;;2.17;;
485;SDS011;229;48.734;9.340;2023-09-19T07:14:33;7.60;;;2.60;;
485;SDS011;229;48.734;9.340;2023-09-19T07:17:00;7.00;;;2.63;;
485;SDS011;229;48.734;9.340;2023-09-19T07:19:28;3.57;;;1.83;;
485;SDS011;229;48.734;9.340;2023-09-19T07:21:56;3.20;;;1.70;;
485;SDS011;229;48.734;9.340;2023-09-19T07:24:24;5.13;;;2.40;;
485;SDS011;229;48.734;9.340;2023-09-19T07:26:53;4.97;;;2.13;;
485;SDS011;229;48.734;9.340;2023-09-19T07:29:22;5.73;;;2.10;;
485;SDS011;229;48.734;9.340;2023-09-19T07:31:51;3.37;;;1.80;;
485;SDS011;229;48.734;9.340;2023-09-19T07:34:18;7.47;;;1.97;;
485;SDS011;229;48.734;9.340;2023-09-19T07:36:47;2.07;;;1.67;;
485;SDS011;229;48.734;9.340;2023-09-19T07:39:14;2.93;;;1.50;;
485;SDS011;229;48.734;9.340;2023-09-19T07:41:41;3.63;;;1.73;;
485;SDS011;229;48.734;9.340;2023-09-19T07:44:08;5.13;;;1.73;;
485;SDS011;229;48.734;9.340;2023-09-19T07:46:37;3.27;;;1.80;;
485;SDS011;229;48.734;9.340;2023-09-19T07:49:04;5.43;;;2.13;;
485;SDS011;229;48.734;9.340;2023-09-19T07:51:31;3.43;;;1.90;;
485;SDS011;229;48.734;9.340;2023-09-19T07:53:59;2.50;;;1.77;;
485;SDS011;229;48.734;9.340;2023-09-19T07:56:26;3.47;;;1.90;;
485;SDS011;229;48.734;9.340;2023-09-19T07:58:53;4.53;;;2.00;;
485;SDS011;229;48.734;9.340;2023-09-19T08:01:22;3.20;;;1.90;;
485;SDS011;229;48.734;9.340;2023-09-19T08:03:53;3.23;;;2.00;;
485;SDS011;229;48.734;9.340;2023-09-19T08:06:20;3.10;;;1.90;;
485;SDS011;229;48.734;9.340;2023-09-19T08:08:50;7.53;;;2.03;;
485;SDS011;229;48.734;9.340;2023-09-19T08:11:20;5.00;;;2.00;;
485;SDS011;229;48.734;9.340;2023-09-19T08:13:49;2.97;;;2.00;;
485;SDS011;229;48.734;9.340;2023-09-19T08:16:17;6.20;;;1.90;;
485;SDS011;229;48.734;9.340;2023-09-19T08:18:47;2.90;;;1.73;;
485;SDS011;229;48.734;9.340;2023-09-19T08:21:21;5.90;;;2.00;;
485;SDS011;229;48.734;9.340;2023-09-19T08:23:49;3.50;;;2.13;;
485;SDS011;229;48.734;9.340;2023-09-19T08:26:16;2.07;;;1.60;;
485;SDS011;229;48.734;9.340;2023-09-19T08:28:44;5.00;;;2.33;;
485;SDS011;229;48.734;9.340;2023-09-19T08:31:13;4.30;;;1.93;;
485;SDS011;229;48.734;9.340;2023-09-19T08:33:42;2.90;;;1.80;;
485;SDS011;229;48.734;9.340;2023-09-19T08:36:15;5.67;;;2.10;;
485;SDS011;229;48.734;9.340;2023-09-19T08:38:43;4.93;;;2.17;;
485;SDS011;229;48.734;9.340;2023-09-19T08:41:10;3.30;;;1.90;;
485;SDS011;229;48.734;9.340;2023-09-19T08:43:38;5.00;;;2.10;;
485;SDS011;229;48.734;9.340;2023-09-19T08:46:07;2.57;;;1.70;;
485;SDS011;229;48.734;9.340;2023-09-19T08:48:39;3.70;;;1.73;;
485;SDS011;229;48.734;9.340;2023-09-19T08:51:06;2.20;;;1.67;;
485;SDS011;229;48.734;9.340;2023-09-19T08:53:36;4.40;;;3.20;;
485;SDS011;229;48.734;9.340;2023-09-19T08:56:10;6.70;;;3.70;;
485;SDS011;229;48.734;9.340;2023-09-19T08:58:39;3.00;;;2.30;;
485;SDS011;229;48.734;9.340;2023-09-19T09:01:08;5.30;;;2.43;;
485;SDS011;229;48.734;9.340;2023-09-19T09:03:37;5.77;;;2.23;;
485;SDS011;229;48.734;9.340;2023-09-19T09:06:08;4.90;;;2.00;;
485;SDS011;229;48.734;9.340;2023-09-19T09:08:38;4.23;;;2.00;;
485;SDS011;229;48.734;9.340;2023-09-19T09:11:06;4.10;;;2.20;;
485;SDS011;229;48.734;9.340;2023-09-19T09:13:35;3.77;;;1.73;;
485;SDS011;229;48.734;9.340;2023-09-19T09:16:04;4.00;;;2.50;;
485;SDS011;229;48.734;9.340;2023-09-19T09:18:31;2.63;;;2.43;;
485;SDS011;229;48.734;9.340;2023-09-19T09:20:58;4.13;;;2.40;;
485;SDS011;229;48.734;9.340;2023-09-19T09:23:28;5.87;;;2.60;;
485;SDS011;229;48.734;9.340;2023-09-19T09:26:13;3.50;;;2.40;;
485;SDS011;229;48.734;9.340;2023-09-19T09:28:55;3.77;;;2.50;;
485;SDS011;229;48.734;9.340;2023-09-19T09:31:23;3.60;;;2.90;;
485;SDS011;229;48.734;9.340;2023-09-19T09:33:54;3.60;;;2.90;;
485;SDS011;229;48.734;9.340;2023-09-19T09:36:33;3.60;;;2.30;;
485;SDS011;229;48.734;9.340;2023-09-19T09:39:01;2.97;;;2.77;;
485;SDS011;229;48.734;9.340;2023-09-19T09:41:41;3.60;;;2.70;;
485;SDS011;229;48.734;9.340;2023-09-19T09:44:13;9.13;;;2.30;;
485;SDS011;229;48.734;9.340;2023-09-19T09:46:42;3.80;;;2.50;;
485;SDS011;229;48.734;9.340;2023-09-19T09:49:47;3.83;;;2.50;;
485;SDS011;229;48.734;9.340;2023-09-19T09:52:19;9.50;;;2.80;;
485;SDS011;229;48.734;9.340;2023-09-19T09:54:58;5.30;;;2.90;;
485;SDS011;229;48.734;9.340;2023-09-19T09:57:26;3.30;;;2.80;;
485;SDS011;229;48.734;9.340;2023-09-19T09:59:56;3.50;;;3.30;;
485;SDS011;229;48.734;9.340;2023-09-19T10:02:40;3.80;;;3.00;;
485;SDS011;229;48.734;9.340;2023-09-19T10:05:11;3.23;;;3.07;;
485;SDS011;229;48.734;9.340;2023-09-19T10:07:46;3.60;;;2.70;;
485;SDS011;229;48.734;9.340;2023-09-19T10:10:28;5.00;;;2.60;;
485;SDS011;229;48.734;9.340;2023-09-19T10:13:10;3.73;;;2.90;;
485;SDS011;229;48.734;9.340;2023-09-19T10:18:58;4.70;;;3.10;;
485;SDS011;229;48.734;9.340;2023-09-19T10:21:54;3.17;;;2.70;;
485;SDS011;229;48.734;9.340;2023-09-19T10:24:22;3.23;;;2.97;;
485;SDS011;229;48.734;9.340;2023-09-19T10:26:50;3.00;;;2.80;;
485;SDS011;229;48.734;9.340;2023-09-19T10:29:33;3.23;;;3.03;;
485;SDS011;229;48.734;9.340;2023-09-19T10:32:05;3.97;;;2.73;;
485;SDS011;229;48.734;9.340;2023-09-19T10:34:35;3.37;;;2.73;;
485;SDS011;229;48.734;9.340;2023-09-19T10:37:08;3.43;;;2.60;;
485;SDS011;229;48.734;9.340;2023-09-19T10:39:40;4.93;;;2.60;;
485;SDS011;229;48.734;9.340;2023-09-19T10:42:07;4.00;;;2.93;;
485;SDS011;229;48.734;9.340;2023-09-19T10:44:38;2.90;;;2.77;;
485;SDS011;229;48.734;9.340;2023-09-19T10:47:09;3.10;;;2.90;;
485;SDS011;229;48.734;9.340;2023-09-19T10:49:43;3.37;;;2.70;;
485;SDS011;229;48.734;9.340;2023-09-19T10:52:12;3.93;;;2.63;;
485;SDS011;229;48.734;9.340;2023-09-19T10:54:45;3.50;;;2.80;;
485;SDS011;229;48.734;9.340;2023-09-19T10:57:18;5.60;;;4.17;;
485;SDS011;229;48.734;9.340;2023-09-19T11:00:00;3.03;;;2.83;;
485;SDS011;229;48.734;9.340;2023-09-19T11:05:31;4.20;;;3.10;;
485;SDS011;229;48.734;9.340;2023-09-19T11:07:59;4.33;;;3.70;;
485;SDS011;229;48.734;9.340;2023-09-19T11:10:44;3.47;;;3.00;;
485;SDS011;229;48.734;9.340;2023-09-19T11:13:23;3.60;;;3.40;;
485;SDS011;229;48.734;9.340;2023-09-19T11:18:54;4.03;;;3.30;;
485;SDS011;229;48.734;9.340;2023-09-19T11:21:39;3.03;;;2.90;;
485;SDS011;229;48.734;9.340;2023-09-19T11:24:27;3.70;;;3.50;;
485;SDS011;229;48.734;9.340;2023-09-19T11:29:39;3.20;;;3.03;;
485;SDS011;229;48.734;9.340;2023-09-19T11:32:06;4.07;;;3.03;;
485;SDS011;229;48.734;9.340;2023-09-19T11:34:44;6.37;;;3.33;;
485;SDS011;229;48.734;9.340;2023-09-19T11:40:09;3.40;;;2.60;;
485;SDS011;229;48.734;9.340;2023-09-19T11:42:41;2.90;;;2.70;;
485;SDS011;229;48.734;9.340;2023-09-19T11:47:52;3.13;;;2.90;;
485;SDS011;229;48.734;9.340;2023-09-19T11:50:21;4.43;;;3.20;;
485;SDS011;229;48.734;9.340;2023-09-19T11:52:51;4.53;;;3.33;;
485;SDS011;229;48.734;9.340;2023-09-19T11:55:21;7.77;;;6.47;;
485;SDS011;229;48.734;9.340;2023-09-19T11:57:50;3.53;;;3.10;;
485;SDS011;229;48.734;9.340;2023-09-19T12:00:17;5.00;;;3.23;;
485;SDS011;229;48.734;9.340;2023-09-19T12:02:46;3.50;;;3.30;;
485;SDS011;229;48.734;9.340;2023-09-19T12:05:14;4.23;;;3.37;;
485;SDS011;229;48.734;9.340;2023-09-19T12:07:42;3.27;;;3.13;;
485;SDS011;229;48.734;9.340;2023-09-19T12:10:11;4.37;;;3.20;;
485;SDS011;229;48.734;9.340;2023-09-19T12:12:44;9.43;;;3.17;;
485;SDS011;229;48.734;9.340;2023-09-19T12:15:14;4.55;;;3.40;;
485;SDS011;229;48.734;9.340;2023-09-19T12:17:41;4.23;;;3.07;;
485;SDS011;229;48.734;9.340;2023-09-19T12:20:09;3.70;;;3.00;;
485;SDS011;229;48.734;9.340;2023-09-19T12:22:41;8.00;;;3.10;;
485;SDS011;229;48.734;9.340;2023-09-19T12:25:09;2.90;;;2.70;;
485;SDS011;229;48.734;9.340;2023-09-19T12:27:41;2.67;;;2.50;;
485;SDS011;229;48.734;9.340;2023-09-19T12:30:12;2.87;;;2.60;;
485;SDS011;229;48.734;9.340;2023-09-19T12:32:40;3.80;;;2.97;;
485;SDS011;229;48.734;9.340;2023-09-19T12:35:07;3.50;;;3.00;;
485;SDS011;229;48.734;9.340;2023-09-19T12:37:36;6.00;;;2.70;;
485;SDS011;229;48.734;9.340;2023-09-19T12:40:04;4.73;;;3.10;;
485;SDS011;229;48.734;9.340;2023-09-19T12:42:42;3.00;;;2.80;;
485;SDS011;229;48.734;9.340;2023-09-19T12:45:11;2.90;;;2.70;;
485;SDS011;229;48.734;9.340;2023-09-19T12:47:40;4.17;;;3.03;;
485;SDS011;229;48.734;9.340;2023-09-19T12:50:27;4.37;;;2.70;;
485;SDS011;229;48.734;9.340;2023-09-19T12:52:55;5.57;;;3.50;;
485;SDS011;229;48.734;9.340;2023-09-19T12:55:25;4.33;;;2.90;;
485;SDS011;229;48.734;9.340;2023-09-19T12:57:56;3.23;;;2.50;;
485;SDS011;229;48.734;9.340;2023-09-19T13:00:32;3.17;;;2.70;;
485;SDS011;229;48.734;9.340;2023-09-19T13:03:11;4.67;;;2.60;;
485;SDS011;229;48.734;9.340;2023-09-19T13:05:50;5.43;;;2.50;;
485;SDS011;229;48.734;9.340;2023-09-19T13:08:22;2.80;;;2.47;;
485;SDS011;229;48.734;9.340;2023-09-19T13:11:04;3.10;;;2.90;;
485;SDS011;229;48.734;9.340;2023-09-19T13:13:34;2.93;;;2.63;;
485;SDS011;229;48.734;9.340;2023-09-19T13:16:03;3.30;;;3.00;;
485;SDS011;229;48.734;9.340;2023-09-19T13:18:43;3.50;;;3.13;;
485;SDS011;229;48.734;9.340;2023-09-19T13:21:11;4.20;;;2.87;;
485;SDS011;229;48.734;9.340;2023-09-19T13:23:48;3.20;;;2.60;;
485;SDS011;229;48.734;9.340;2023-09-19T13:26:15;2.70;;;2.50;;
485;SDS011;229;48.734;9.340;2023-09-19T13:28:42;3.23;;;2.77;;
485;SDS011;229;48.734;9.340;2023-09-19T13:31:12;8.50;;;2.77;;
485;SDS011;229;48.734;9.340;2023-09-19T13:33:44;3.03;;;2.83;;
485;SDS011;229;48.734;9.340;2023-09-19T13:36:12;3.60;;;2.67;;
485;SDS011;229;48.734;9.340;2023-09-19T13:38:47;3.60;;;2.30;;
485;SDS011;229;48.734;9.340;2023-09-19T13:41:15;2.87;;;2.67;;
485;SDS011;229;48.734;9.340;2023-09-19T13:43:43;4.10;;;2.87;;
485;SDS011;229;48.734;9.340;2023-09-19T13:46:15;2.43;;;2.30;;
485;SDS011;229;48.734;9.340;2023-09-19T13:48:50;2.50;;;2.20;;
485;SDS011;229;48.734;9.340;2023-09-19T13:51:19;2.90;;;2.70;;
485;SDS011;229;48.734;9.340;2023-09-19T13:53:50;5.90;;;2.83;;
485;SDS011;229;48.734;9.340;2023-09-19T13:56:17;3.20;;;3.00;;
485;SDS011;229;48.734;9.340;2023-09-19T13:58:44;4.60;;;2.57;;
485;SDS011;229;48.734;9.340;2023-09-19T14:01:12;3.90;;;2.60;;
485;SDS011;229;48.734;9.340;2023-09-19T14:03:48;3.13;;;2.53;;
485;SDS011;229;48.734;9.340;2023-09-19T14:06:16;2.73;;;2.60;;
485;SDS011;229;48.734;9.340;2023-09-19T14:08:51;4.30;;;3.23;;
485;SDS011;229;48.734;9.340;2023-09-19T14:11:23;2.90;;;2.70;;
485;SDS011;229;48.734;9.340;2023-09-19T14:13:51;5.40;;;3.50;;
485;SDS011;229;48.734;9.340;2023-09-19T14:16:21;4.43;;;3.20;;
485;SDS011;229;48.734;9.340;2023-09-19T14:18:51;8.20;;;2.70;;
485;SDS011;229;48.734;9.340;2023-09-19T14:21:18;4.17;;;2.70;;
485;SDS011;229;48.734;9.340;2023-09-19T14:23:45;2.30;;;2.10;;
485;SDS011;229;48.734;9.340;2023-09-19T14:26:14;3.40;;;2.57;;
485;SDS011;229;48.734;9.340;2023-09-19T14:28:43;5.90;;;2.50;;
485;SDS011;229;48.734;9.340;2023-09-19T14:31:29;4.07;;;2.27;;
485;SDS011;229;48.734;9.340;2023-09-19T14:34:03;2.80;;;2.17;;
485;SDS011;229;48.734;9.340;2023-09-19T14:36:45;3.00;;;2.30;;
485;SDS011;229;48.734;9.340;2023-09-19T14:39:14;3.30;;;2.20;;
485;SDS011;229;48.734;9.340;2023-09-19T14:41:41;4.20;;;2.47;;
485;SDS011;229;48.734;9.340;2023-09-19T14:44:15;2.53;;;2.40;;
485;SDS011;229;48.734;9.340;2023-09-19T15:00:21;5.00;;;2.53;;
485;SDS011;229;48.734;9.340;2023-09-19T15:02:49;3.13;;;2.30;;
485;SDS011;229;48.734;9.340;2023-09-19T15:05:17;3.77;;;2.10;;
485;SDS011;229;48.734;9.340;2023-09-19T15:07:44;4.10;;;2.40;;
485;SDS011;229;48.734;9.340;2023-09-19T15:10:11;5.43;;;2.60;;
485;SDS011;229;48.734;9.340;2023-09-19T15:12:39;4.50;;;2.67;;
485;SDS011;229;48.734;9.340;2023-09-19T15:15:06;4.70;;;3.23;;
485;SDS011;229;48.734;9.340;2023-09-19T15:17:36;4.07;;;2.37;;
485;SDS011;229;48.734;9.340;2023-09-19T15:20:03;3.47;;;2.63;;
485;SDS011;229;48.734;9.340;2023-09-19T15:22:31;2.83;;;2.43;;
485;SDS011;229;48.734;9.340;2023-09-19T15:24:59;2.40;;;2.17;;
485;SDS011;229;48.734;9.340;2023-09-19T15:27:26;2.50;;;2.30;;
485;SDS011;229;48.734;9.340;2023-09-19T15:29:55;5.80;;;4.47;;
485;SDS011;229;48.734;9.340;2023-09-19T15:32:23;6.53;;;2.60;;
485;SDS011;229;48.734;9.340;2023-09-19T15:34:52;3.90;;;3.03;;
485;SDS011;229;48.734;9.340;2023-09-19T15:37:19;3.80;;;2.30;;
485;SDS011;229;48.734;9.340;2023-09-19T15:39:47;2.93;;;2.57;;
485;SDS011;229;48.734;9.340;2023-09-19T15:42:14;2.77;;;2.40;;
485;SDS011;229;48.734;9.340;2023-09-19T15:44:42;2.10;;;1.90;;
485;SDS011;229;48.734;9.340;2023-09-19T15:47:11;2.37;;;2.17;;
485;SDS011;229;48.734;9.340;2023-09-19T15:49:39;4.00;;;3.30;;
485;SDS011;229;48.734;9.340;2023-09-19T15:52:08;4.57;;;3.10;;
485;SDS011;229;48.734;9.340;2023-09-19T15:54:35;3.40;;;2.07;;
485;SDS011;229;48.734;9.340;2023-09-19T15:57:07;2.77;;;2.00;;
485;SDS011;229;48.734;9.340;2023-09-19T15:59:37;3.97;;;2.33;;
485;SDS011;229;48.734;9.340;2023-09-19T16:02:04;4.20;;;2.03;;
485;SDS011;229;48.734;9.340;2023-09-19T16:04:32;3.47;;;2.43;;
485;SDS011;229;48.734;9.340;2023-09-19T16:06:59;2.13;;;2.00;;
485;SDS011;229;48.734;9.340;2023-09-19T16:09:29;3.60;;;2.00;;
485;SDS011;229;48.734;9.340;2023-09-19T16:11:56;3.27;;;2.60;;
485;SDS011;229;48.734;9.340;2023-09-19T16:14:23;3.70;;;2.10;;
485;SDS011;229;48.734;9.340;2023-09-19T16:16:52;5.23;;;2.10;;
485;SDS011;229;48.734;9.340;2023-09-19T16:19:19;4.27;;;2.10;;
485;SDS011;229;48.734;9.340;2023-09-19T16:21:46;5.23;;;2.37;;
485;SDS011;229;48.734;9.340;2023-09-19T16:24:14;4.70;;;1.90;;
485;SDS011;229;48.734;9.340;2023-09-19T16:26:43;3.57;;;2.37;;
485;SDS011;229;48.734;9.340;2023-09-19T16:29:11;3.93;;;2.70;;
485;SDS011;229;48.734;9.340;2023-09-19T16:31:38;4.03;;;2.37;;